Time,TemperatureF,DewpointF,PressureIn,WindDirection,WindDirectionDegrees,WindSpeedMPH,WindSpeedGustMPH,Humidity,HourlyPrecipIn,Conditions,Clouds,dailyrainin,SoftwareType,DateUTC
2013-03-13 00:10:00,30.2,26.2,29.94,WSW,247,0.0,-999.0,85,-99.99,,,0.00,Acu-Link.com,2013-03-13 04:10:00,
2013-03-13 00:25:00,30.2,26.5,29.95,SSE,157,0.0,-999.0,86,-99.99,,,0.00,Acu-Link.com,2013-03-13 04:25:00,
2013-03-13 00:40:00,30.2,26.5,29.94,SSW,202,0.0,-999.0,86,-99.99,,,0.00,Acu-Link.com,2013-03-13 04:40:00,
2013-03-13 00:55:00,30.2,27.1,29.94,SW,225,0.0,-999.0,88,-99.99,,,0.00,Acu-Link.com,2013-03-13 04:55:00,
2013-03-13 01:10:00,30.2,27.1,29.94,WSW,247,1.6,-999.0,88,-99.99,,,0.00,Acu-Link.com,2013-03-13 05:10:00,
2013-03-13 01:25:00,30.2,27.1,29.93,SSW,202,0.0,-999.0,88,-99.99,,,0.00,Acu-Link.com,2013-03-13 05:25:00,
2013-03-13 01:40:00,30.2,26.8,29.92,ESE,112,0.0,-999.0,87,-99.99,,,0.00,Acu-Link.com,2013-03-13 05:40:00,
2013-03-13 01:55:00,30.2,27.6,29.91,East,90,0.0,-999.0,90,-99.99,,,0.00,Acu-Link.com,2013-03-13 05:55:00,
2013-03-13 02:10:00,30.2,27.4,29.92,East,90,0.0,-999.0,89,-99.99,,,0.00,Acu-Link.com,2013-03-13 06:10:00,
2013-03-13 02:25:00,30.2,27.4,29.92,SW,225,0.0,-999.0,89,-99.99,,,0.00,Acu-Link.com,2013-03-13 06:25:00,
2013-03-13 02:40:00,30.2,25.7,29.91,SSW,202,0.0,-999.0,83,-99.99,,,0.00,Acu-Link.com,2013-03-13 06:40:00,
2013-03-13 02:55:00,32.0,26.2,29.91,South,180,0.0,-999.0,79,-99.99,,,0.00,Acu-Link.com,2013-03-13 06:55:00,
2013-03-13 03:10:00,32.0,25.3,29.91,SE,135,0.0,-999.0,76,-99.99,,,0.00,Acu-Link.com,2013-03-13 07:10:00,
2013-03-13 03:25:00,32.0,25.3,29.90,SW,225,1.6,-999.0,76,-99.99,,,0.00,Acu-Link.com,2013-03-13 07:25:00,
2013-03-13 03:40:00,32.0,25.9,29.90,SSW,202,2.0,-999.0,78,-99.99,,,0.00,Acu-Link.com,2013-03-13 07:40:00,
2013-03-13 03:55:00,32.0,26.5,29.89,SW,225,1.1,-999.0,80,-99.99,,,0.00,Acu-Link.com,2013-03-13 07:55:00,
2013-03-13 04:10:00,32.0,27.1,29.89,SSW,202,3.1,-999.0,82,-99.99,,,0.00,Acu-Link.com,2013-03-13 08:10:00,
2013-03-13 04:25:00,32.0,27.7,29.89,NNE,22,2.7,-999.0,84,-99.99,,,0.00,Acu-Link.com,2013-03-13 08:25:00,
2013-03-13 04:40:00,30.2,26.2,29.89,SSW,202,2.0,-999.0,85,-99.99,,,0.00,Acu-Link.com,2013-03-13 08:40:00,
2013-03-13 04:55:00,30.2,26.5,29.88,WNW,292,0.0,-999.0,86,-99.99,,,0.00,Acu-Link.com,2013-03-13 08:55:00,
2013-03-13 05:10:00,30.2,26.5,29.88,North,0,0.0,-999.0,86,-99.99,,,0.00,Acu-Link.com,2013-03-13 09:10:00,
2013-03-13 05:25:00,32.0,28.3,29.89,South,180,0.0,-999.0,86,-99.99,,,0.00,Acu-Link.com,2013-03-13 09:25:00,
2013-03-13 05:40:00,32.0,28.3,29.88,SW,225,1.1,-999.0,86,-99.99,,,0.00,Acu-Link.com,2013-03-13 09:40:00,
2013-03-13 05:55:00,32.0,27.4,29.88,WNW,292,3.1,-999.0,83,-99.99,,,0.00,Acu-Link.com,2013-03-13 09:55:00,
2013-03-13 06:10:00,32.0,26.2,29.89,WNW,292,5.1,-999.0,79,-99.99,,,0.00,Acu-Link.com,2013-03-13 10:10:00,
2013-03-13 06:26:00,32.0,25.9,29.89,WNW,292,3.1,-999.0,78,-99.99,,,0.00,Acu-Link.com,2013-03-13 10:26:00,
2013-03-13 06:41:00,32.0,25.6,29.89,WNW,292,5.6,-999.0,77,-99.99,,,0.00,Acu-Link.com,2013-03-13 10:41:00,
2013-03-13 06:56:00,32.0,25.6,29.89,WSW,247,3.6,-999.0,77,-99.99,,,0.00,Acu-Link.com,2013-03-13 10:56:00,
2013-03-13 07:11:00,32.0,25.0,29.89,NW,315,3.6,-999.0,75,-99.99,,,0.00,Acu-Link.com,2013-03-13 11:11:00,
2013-03-13 07:26:00,32.0,25.3,29.89,NW,315,4.7,-999.0,76,-99.99,,,0.00,Acu-Link.com,2013-03-13 11:26:00,
2013-03-13 07:41:00,32.0,24.3,29.90,West,270,12.3,-999.0,73,-99.99,,,0.00,Acu-Link.com,2013-03-13 11:41:00,
2013-03-13 07:56:00,32.0,24.0,29.89,NW,315,4.0,-999.0,72,-99.99,,,0.00,Acu-Link.com,2013-03-13 11:56:00,
2013-03-13 08:11:00,32.0,23.0,29.90,WNW,292,10.7,-999.0,69,-99.99,,,0.15,Acu-Link.com,2013-03-13 12:11:00,
2013-03-13 08:26:00,32.0,23.7,29.91,SW,225,2.7,-999.0,71,-99.99,,,0.15,Acu-Link.com,2013-03-13 12:26:00,
2013-03-13 08:41:00,30.2,22.6,29.92,WSW,247,4.0,-999.0,73,-99.99,,,0.15,Acu-Link.com,2013-03-13 12:41:00,
2013-03-13 08:56:00,30.2,22.6,29.92,WNW,292,3.1,-999.0,73,-99.99,,,0.15,Acu-Link.com,2013-03-13 12:56:00,
2013-03-13 09:57:00,32.0,23.0,29.94,West,270,4.7,-999.0,69,-99.99,,,0.15,Acu-Link.com,2013-03-13 13:57:00,
2013-03-13 10:12:00,32.0,21.9,29.94,West,270,6.7,-999.0,66,-99.99,,,0.15,Acu-Link.com,2013-03-13 14:12:00,
2013-03-13 10:27:00,32.0,23.0,29.94,SW,225,4.7,-999.0,69,-99.99,,,0.15,Acu-Link.com,2013-03-13 14:27:00,
2013-03-13 10:42:00,32.0,23.0,29.94,WSW,247,4.0,-999.0,69,-99.99,,,0.15,Acu-Link.com,2013-03-13 14:42:00,
2013-03-13 10:57:00,32.0,23.0,29.95,SSW,202,2.7,-999.0,69,-99.99,,,0.15,Acu-Link.com,2013-03-13 14:57:00,
2013-03-13 11:12:00,32.0,23.0,29.95,NW,315,8.7,-999.0,69,-99.99,,,0.15,Acu-Link.com,2013-03-13 15:12:00,
2013-03-13 11:27:00,32.0,23.3,29.96,WNW,292,3.6,-999.0,70,-99.99,,,0.15,Acu-Link.com,2013-03-13 15:27:00,
2013-03-13 11:57:00,30.2,25.7,29.97,West,270,9.8,-999.0,83,-99.99,,,0.15,Acu-Link.com,2013-03-13 15:57:00,
2013-03-13 12:12:00,28.4,24.5,29.98,WSW,247,3.6,-999.0,85,-99.99,,,0.15,Acu-Link.com,2013-03-13 16:12:00,
2013-03-13 12:42:00,30.2,19.1,29.99,West,270,11.4,-999.0,63,-99.99,,,0.15,Acu-Link.com,2013-03-13 16:42:00,
2013-03-13 12:57:00,32.0,21.6,30.00,NW,315,11.9,-999.0,65,-99.99,,,0.15,Acu-Link.com,2013-03-13 16:57:00,
2013-03-13 13:12:00,32.0,21.2,30.00,WNW,292,5.1,-999.0,64,-99.99,,,0.15,Acu-Link.com,2013-03-13 17:12:00,
2013-03-13 13:27:00,32.0,20.9,30.01,NW,315,4.0,-999.0,63,-99.99,,,0.15,Acu-Link.com,2013-03-13 17:27:00,
2013-03-13 13:42:00,32.0,20.1,30.01,WNW,292,8.3,-999.0,61,-99.99,,,0.15,Acu-Link.com,2013-03-13 17:42:00,
2013-03-13 13:57:00,32.0,18.9,30.01,North,0,7.8,-999.0,58,-99.99,,,0.15,Acu-Link.com,2013-03-13 17:57:00,
2013-03-13 14:13:00,30.2,17.6,30.01,ENE,67,7.2,-999.0,59,-99.99,,,0.15,Acu-Link.com,2013-03-13 18:13:00,
2013-03-13 14:28:00,32.0,20.1,30.01,ENE,67,5.1,-999.0,61,-99.99,,,0.15,Acu-Link.com,2013-03-13 18:28:00,
2013-03-13 14:43:00,32.0,19.3,30.01,WNW,292,6.7,-999.0,59,-99.99,,,0.15,Acu-Link.com,2013-03-13 18:43:00,
2013-03-13 14:58:00,32.0,18.9,30.01,WSW,247,9.8,-999.0,58,-99.99,,,0.15,Acu-Link.com,2013-03-13 18:58:00,
2013-03-13 15:13:00,32.0,19.3,30.01,West,270,7.8,-999.0,59,-99.99,,,0.15,Acu-Link.com,2013-03-13 19:13:00,
2013-03-13 15:28:00,32.0,20.9,30.02,NNW,337,13.0,-999.0,63,-99.99,,,0.15,Acu-Link.com,2013-03-13 19:28:00,
2013-03-13 15:43:00,32.0,21.6,30.02,WNW,292,11.4,-999.0,65,-99.99,,,0.15,Acu-Link.com,2013-03-13 19:43:00,
2013-03-13 15:58:00,32.0,24.3,30.03,NW,315,5.6,-999.0,73,-99.99,,,0.15,Acu-Link.com,2013-03-13 19:58:00,
2013-03-13 16:13:00,32.0,24.3,30.04,WSW,247,4.7,-999.0,73,-99.99,,,0.15,Acu-Link.com,2013-03-13 20:13:00,
2013-03-13 16:28:00,32.0,24.3,30.04,West,270,5.1,-999.0,73,-99.99,,,0.15,Acu-Link.com,2013-03-13 20:28:00,
2013-03-13 16:43:00,32.0,22.7,30.04,WNW,292,6.7,-999.0,68,-99.99,,,0.15,Acu-Link.com,2013-03-13 20:43:00,
2013-03-13 16:58:00,32.0,22.3,30.05,NNW,337,5.6,-999.0,67,-99.99,,,0.15,Acu-Link.com,2013-03-13 20:58:00,
2013-03-13 17:13:00,30.2,23.9,30.05,WSW,247,4.0,-999.0,77,-99.99,,,0.15,Acu-Link.com,2013-03-13 21:13:00,
2013-03-13 17:43:00,30.2,22.6,30.06,West,270,6.3,-999.0,73,-99.99,,,0.15,Acu-Link.com,2013-03-13 21:43:00,
2013-03-13 17:58:00,30.2,21.9,30.06,WNW,292,7.8,-999.0,71,-99.99,,,0.15,Acu-Link.com,2013-03-13 21:58:00,
2013-03-13 18:13:00,30.2,23.6,30.06,ESE,112,4.0,-999.0,76,-99.99,,,0.15,Acu-Link.com,2013-03-13 22:13:00,
2013-03-13 18:28:00,30.2,24.2,30.08,WNW,292,2.0,-999.0,78,-99.99,,,0.15,Acu-Link.com,2013-03-13 22:28:00,
2013-03-13 18:43:00,30.2,24.2,30.08,West,270,5.6,-999.0,78,-99.99,,,0.15,Acu-Link.com,2013-03-13 22:43:00,
2013-03-13 18:58:00,30.2,21.6,30.08,WNW,292,7.8,-999.0,70,-99.99,,,0.15,Acu-Link.com,2013-03-13 22:58:00,
2013-03-13 19:13:00,30.2,22.6,30.08,West,270,9.2,-999.0,73,-99.99,,,0.15,Acu-Link.com,2013-03-13 23:13:00,
2013-03-13 19:28:00,30.2,22.3,30.09,NNE,22,3.1,-999.0,72,-99.99,,,0.15,Acu-Link.com,2013-03-13 23:28:00,
2013-03-13 19:43:00,30.2,21.6,30.10,West,270,4.7,-999.0,70,-99.99,,,0.15,Acu-Link.com,2013-03-13 23:43:00,
2013-03-13 19:59:00,30.2,21.6,30.10,WNW,292,4.0,-999.0,70,-99.99,,,0.15,Acu-Link.com,2013-03-13 23:59:00,
2013-03-13 20:14:00,30.2,21.9,30.10,West,270,2.0,-999.0,71,-99.99,,,0.15,Acu-Link.com,2013-03-14 00:14:00,
2013-03-13 20:29:00,30.2,22.6,30.11,SW,225,3.1,-999.0,73,-99.99,,,0.15,Acu-Link.com,2013-03-14 00:29:00,
2013-03-13 20:44:00,30.2,23.2,30.11,West,270,6.3,-999.0,75,-99.99,,,0.15,Acu-Link.com,2013-03-14 00:44:00,
2013-03-13 20:59:00,30.2,22.9,30.11,West,270,5.1,-999.0,74,-99.99,,,0.15,Acu-Link.com,2013-03-14 00:59:00,
2013-03-13 21:14:00,30.2,23.2,30.12,WNW,292,6.3,-999.0,75,-99.99,,,0.15,Acu-Link.com,2013-03-14 01:14:00,
2013-03-13 21:29:00,30.2,22.9,30.12,WNW,292,3.6,-999.0,74,-99.99,,,0.15,Acu-Link.com,2013-03-14 01:29:00,
2013-03-13 21:44:00,30.2,22.9,30.12,ESE,112,1.1,-999.0,74,-99.99,,,0.15,Acu-Link.com,2013-03-14 01:44:00,
2013-03-13 21:59:00,30.2,23.2,30.12,SW,225,2.7,-999.0,75,-99.99,,,0.15,Acu-Link.com,2013-03-14 01:59:00,
2013-03-13 22:14:00,30.2,23.6,30.13,South,180,2.0,-999.0,76,-99.99,,,0.15,Acu-Link.com,2013-03-14 02:14:00,
2013-03-13 22:30:00,30.2,23.6,30.13,NW,315,1.6,-999.0,76,-99.99,,,0.15,Acu-Link.com,2013-03-14 02:30:00,
2013-03-13 22:45:00,30.2,23.6,30.14,SSW,202,2.7,-999.0,76,-99.99,,,0.15,Acu-Link.com,2013-03-14 02:45:00,
2013-03-13 23:00:00,30.2,23.6,30.14,WNW,292,6.3,-999.0,76,-99.99,,,0.15,Acu-Link.com,2013-03-14 03:00:00,
2013-03-13 23:15:00,30.2,23.6,30.15,NNW,337,9.2,-999.0,76,-99.99,,,0.15,Acu-Link.com,2013-03-14 03:15:00,
2013-03-13 23:30:00,30.2,23.6,30.15,West,270,4.0,-999.0,76,-99.99,,,0.15,Acu-Link.com,2013-03-14 03:30:00,
2013-03-13 23:45:00,30.2,23.6,30.15,West,270,6.3,-999.0,76,-99.99,,,0.15,Acu-Link.com,2013-03-14 03:45:00,